sensor_id;sensor_type;location;lat;lon;timestamp;P1;durP1;ratioP1;P2;durP2;ratioP2
56517;SDS011;42419;48.760;2.322;2023-07-29T00:02:08;2.03;;;1.90;;
56517;SDS011;42419;48.760;2.322;2023-07-29T00:04:34;2.10;;;1.77;;
56517;SDS011;42419;48.760;2.322;2023-07-29T00:06:59;3.93;;;1.70;;
56517;SDS011;42419;48.760;2.322;2023-07-29T00:09:24;1.97;;;1.60;;
56517;SDS011;42419;48.760;2.322;2023-07-29T00:11:50;3.10;;;1.80;;
56517;SDS011;42419;48.760;2.322;2023-07-29T00:14:15;2.00;;;1.50;;
56517;SDS011;42419;48.760;2.322;2023-07-29T00:16:40;1.47;;;1.37;;
56517;SDS011;42419;48.760;2.322;2023-07-29T00:19:07;1.70;;;1.60;;
56517;SDS011;42419;48.760;2.322;2023-07-29T00:21:32;1.93;;;1.80;;
56517;SDS011;42419;48.760;2.322;2023-07-29T00:23:57;3.73;;;1.50;;
56517;SDS011;42419;48.760;2.322;2023-07-29T00:26:23;3.47;;;1.93;;
56517;SDS011;42419;48.760;2.322;2023-07-29T00:28:50;2.13;;;1.43;;
56517;SDS011;42419;48.760;2.322;2023-07-29T00:31:16;2.70;;;1.67;;
56517;SDS011;42419;48.760;2.322;2023-07-29T00:33:41;1.80;;;1.70;;
56517;SDS011;42419;48.760;2.322;2023-07-29T00:36:06;3.50;;;1.67;;
56517;SDS011;42419;48.760;2.322;2023-07-29T00:38:32;1.80;;;1.70;;
56517;SDS011;42419;48.760;2.322;2023-07-29T00:40:57;1.60;;;1.40;;
56517;SDS011;42419;48.760;2.322;2023-07-29T00:43:24;2.03;;;1.80;;
56517;SDS011;42419;48.760;2.322;2023-07-29T00:45:51;3.83;;;1.60;;
56517;SDS011;42419;48.760;2.322;2023-07-29T00:48:17;1.60;;;1.50;;
56517;SDS011;42419;48.760;2.322;2023-07-29T00:50:43;2.13;;;1.63;;
56517;SDS011;42419;48.760;2.322;2023-07-29T00:53:08;3.23;;;1.80;;
56517;SDS011;42419;48.760;2.322;2023-07-29T00:55:34;1.70;;;1.60;;
56517;SDS011;42419;48.760;2.322;2023-07-29T00:57:59;1.67;;;1.50;;
56517;SDS011;42419;48.760;2.322;2023-07-29T01:00:25;1.33;;;1.13;;
56517;SDS011;42419;48.760;2.322;2023-07-29T01:02:50;1.80;;;1.50;;
56517;SDS011;42419;48.760;2.322;2023-07-29T01:05:17;1.40;;;1.30;;
56517;SDS011;42419;48.760;2.322;2023-07-29T01:10:41;1.60;;;1.40;;
56517;SDS011;42419;48.760;2.322;2023-07-29T01:16:10;1.43;;;1.33;;
56517;SDS011;42419;48.760;2.322;2023-07-29T01:18:50;1.33;;;1.23;;
56517;SDS011;42419;48.760;2.322;2023-07-29T01:21:19;1.53;;;1.43;;
56517;SDS011;42419;48.760;2.322;2023-07-29T01:23:45;1.73;;;1.40;;
56517;SDS011;42419;48.760;2.322;2023-07-29T01:26:11;1.60;;;1.50;;
56517;SDS011;42419;48.760;2.322;2023-07-29T01:28:36;1.50;;;1.40;;
56517;SDS011;42419;48.760;2.322;2023-07-29T01:31:16;1.53;;;1.43;;
56517;SDS011;42419;48.760;2.322;2023-07-29T01:33:59;1.60;;;1.40;;
56517;SDS011;42419;48.760;2.322;2023-07-29T01:36:31;1.60;;;1.33;;
56517;SDS011;42419;48.760;2.322;2023-07-29T01:38:59;1.60;;;1.40;;
56517;SDS011;42419;48.760;2.322;2023-07-29T01:41:26;1.60;;;1.20;;
56517;SDS011;42419;48.760;2.322;2023-07-29T01:43:52;1.23;;;1.00;;
56517;SDS011;42419;48.760;2.322;2023-07-29T01:46:18;2.20;;;1.40;;
56517;SDS011;42419;48.760;2.322;2023-07-29T01:48:44;1.30;;;1.20;;
56517;SDS011;42419;48.760;2.322;2023-07-29T01:51:11;2.60;;;1.53;;
56517;SDS011;42419;48.760;2.322;2023-07-29T01:53:37;1.67;;;1.57;;
56517;SDS011;42419;48.760;2.322;2023-07-29T01:56:02;2.73;;;1.63;;
56517;SDS011;42419;48.760;2.322;2023-07-29T01:58:27;1.63;;;1.53;;
56517;SDS011;42419;48.760;2.322;2023-07-29T02:00:53;1.40;;;1.30;;
56517;SDS011;42419;48.760;2.322;2023-07-29T02:03:18;1.47;;;1.20;;
56517;SDS011;42419;48.760;2.322;2023-07-29T02:05:43;1.83;;;1.50;;
56517;SDS011;42419;48.760;2.322;2023-07-29T02:08:09;1.57;;;1.13;;
56517;SDS011;42419;48.760;2.322;2023-07-29T02:10:35;1.60;;;1.50;;
56517;SDS011;42419;48.760;2.322;2023-07-29T02:13:00;1.70;;;1.50;;
56517;SDS011;42419;48.760;2.322;2023-07-29T02:15:25;1.73;;;1.40;;
56517;SDS011;42419;48.760;2.322;2023-07-29T02:17:51;1.80;;;1.60;;
56517;SDS011;42419;48.760;2.322;2023-07-29T02:20:17;1.40;;;1.30;;
56517;SDS011;42419;48.760;2.322;2023-07-29T02:22:42;1.30;;;1.17;;
56517;SDS011;42419;48.760;2.322;2023-07-29T02:25:07;3.00;;;1.60;;
56517;SDS011;42419;48.760;2.322;2023-07-29T02:27:33;1.30;;;1.20;;
56517;SDS011;42419;48.760;2.322;2023-07-29T02:29:58;1.47;;;1.37;;
56517;SDS011;42419;48.760;2.322;2023-07-29T02:32:24;1.33;;;1.23;;
56517;SDS011;42419;48.760;2.322;2023-07-29T02:34:49;1.30;;;1.20;;
56517;SDS011;42419;48.760;2.322;2023-07-29T02:37:14;1.60;;;1.50;;
56517;SDS011;42419;48.760;2.322;2023-07-29T02:39:39;1.67;;;1.47;;
56517;SDS011;42419;48.760;2.322;2023-07-29T02:42:05;1.43;;;1.33;;
56517;SDS011;42419;48.760;2.322;2023-07-29T02:44:30;1.47;;;1.10;;
56517;SDS011;42419;48.760;2.322;2023-07-29T02:46:55;1.67;;;1.47;;
56517;SDS011;42419;48.760;2.322;2023-07-29T02:49:21;2.50;;;1.60;;
56517;SDS011;42419;48.760;2.322;2023-07-29T02:51:48;1.40;;;1.30;;
56517;SDS011;42419;48.760;2.322;2023-07-29T02:54:13;1.50;;;1.40;;
56517;SDS011;42419;48.760;2.322;2023-07-29T02:56:38;1.50;;;1.40;;
56517;SDS011;42419;48.760;2.322;2023-07-29T02:59:04;2.63;;;1.50;;
56517;SDS011;42419;48.760;2.322;2023-07-29T03:01:30;1.70;;;1.60;;
56517;SDS011;42419;48.760;2.322;2023-07-29T03:03:55;1.53;;;1.20;;
56517;SDS011;42419;48.760;2.322;2023-07-29T03:06:21;2.43;;;1.50;;
56517;SDS011;42419;48.760;2.322;2023-07-29T03:08:46;2.20;;;1.57;;
56517;SDS011;42419;48.760;2.322;2023-07-29T03:11:15;1.23;;;1.13;;
56517;SDS011;42419;48.760;2.322;2023-07-29T03:13:41;1.40;;;1.30;;
56517;SDS011;42419;48.760;2.322;2023-07-29T03:16:11;2.90;;;1.40;;
56517;SDS011;42419;48.760;2.322;2023-07-29T03:18:38;1.80;;;1.70;;
56517;SDS011;42419;48.760;2.322;2023-07-29T03:21:04;1.77;;;1.60;;
56517;SDS011;42419;48.760;2.322;2023-07-29T03:23:30;2.07;;;1.73;;
56517;SDS011;42419;48.760;2.322;2023-07-29T03:25:56;1.90;;;1.47;;
56517;SDS011;42419;48.760;2.322;2023-07-29T03:28:27;1.60;;;1.50;;
56517;SDS011;42419;48.760;2.322;2023-07-29T03:30:56;1.70;;;1.60;;
56517;SDS011;42419;48.760;2.322;2023-07-29T03:33:22;2.33;;;1.47;;
56517;SDS011;42419;48.760;2.322;2023-07-29T03:35:49;2.20;;;1.63;;
56517;SDS011;42419;48.760;2.322;2023-07-29T03:38:14;1.60;;;1.50;;
56517;SDS011;42419;48.760;2.322;2023-07-29T03:40:40;1.73;;;1.40;;
56517;SDS011;42419;48.760;2.322;2023-07-29T03:43:06;3.00;;;1.70;;
56517;SDS011;42419;48.760;2.322;2023-07-29T03:45:33;1.90;;;1.27;;
56517;SDS011;42419;48.760;2.322;2023-07-29T03:47:58;1.63;;;1.50;;
56517;SDS011;42419;48.760;2.322;2023-07-29T03:50:24;1.73;;;1.50;;
56517;SDS011;42419;48.760;2.322;2023-07-29T03:52:49;2.40;;;1.57;;
56517;SDS011;42419;48.760;2.322;2023-07-29T03:55:15;1.80;;;1.70;;
56517;SDS011;42419;48.760;2.322;2023-07-29T03:57:40;3.00;;;1.80;;
56517;SDS011;42419;48.760;2.322;2023-07-29T04:00:06;2.47;;;1.40;;
56517;SDS011;42419;48.760;2.322;2023-07-29T04:02:31;2.03;;;1.87;;
56517;SDS011;42419;48.760;2.322;2023-07-29T04:04:56;1.90;;;1.50;;
56517;SDS011;42419;48.760;2.322;2023-07-29T04:07:22;1.70;;;1.60;;
56517;SDS011;42419;48.760;2.322;2023-07-29T04:09:47;1.50;;;1.40;;
56517;SDS011;42419;48.760;2.322;2023-07-29T04:12:14;3.37;;;1.60;;
56517;SDS011;42419;48.760;2.322;2023-07-29T04:14:39;1.30;;;1.20;;
56517;SDS011;42419;48.760;2.322;2023-07-29T04:17:05;1.80;;;1.50;;
56517;SDS011;42419;48.760;2.322;2023-07-29T04:19:30;1.70;;;1.60;;
56517;SDS011;42419;48.760;2.322;2023-07-29T04:21:55;2.03;;;1.83;;
56517;SDS011;42419;48.760;2.322;2023-07-29T04:24:21;2.00;;;1.87;;
56517;SDS011;42419;48.760;2.322;2023-07-29T04:26:48;1.53;;;1.40;;
56517;SDS011;42419;48.760;2.322;2023-07-29T04:29:13;1.93;;;1.60;;
56517;SDS011;42419;48.760;2.322;2023-07-29T04:31:39;1.40;;;1.30;;
56517;SDS011;42419;48.760;2.322;2023-07-29T04:34:04;1.63;;;1.53;;
56517;SDS011;42419;48.760;2.322;2023-07-29T04:36:30;1.80;;;1.60;;
56517;SDS011;42419;48.760;2.322;2023-07-29T04:38:55;2.17;;;1.50;;
56517;SDS011;42419;48.760;2.322;2023-07-29T04:41:20;1.43;;;1.33;;
56517;SDS011;42419;48.760;2.322;2023-07-29T04:43:45;1.67;;;1.57;;
56517;SDS011;42419;48.760;2.322;2023-07-29T04:46:11;1.67;;;1.30;;
56517;SDS011;42419;48.760;2.322;2023-07-29T04:48:36;1.60;;;1.50;;
56517;SDS011;42419;48.760;2.322;2023-07-29T04:51:01;1.57;;;1.47;;
56517;SDS011;42419;48.760;2.322;2023-07-29T04:53:27;1.87;;;1.33;;
56517;SDS011;42419;48.760;2.322;2023-07-29T04:55:52;2.67;;;1.70;;
56517;SDS011;42419;48.760;2.322;2023-07-29T04:58:17;2.90;;;1.63;;
56517;SDS011;42419;48.760;2.322;2023-07-29T05:00:43;1.80;;;1.57;;
56517;SDS011;42419;48.760;2.322;2023-07-29T05:03:08;1.90;;;1.60;;
56517;SDS011;42419;48.760;2.322;2023-07-29T05:05:33;1.50;;;1.40;;
56517;SDS011;42419;48.760;2.322;2023-07-29T05:07:59;2.23;;;1.40;;
56517;SDS011;42419;48.760;2.322;2023-07-29T05:10:24;2.50;;;1.53;;
56517;SDS011;42419;48.760;2.322;2023-07-29T05:12:49;1.73;;;1.43;;
56517;SDS011;42419;48.760;2.322;2023-07-29T05:15:15;1.50;;;1.40;;
56517;SDS011;42419;48.760;2.322;2023-07-29T05:17:40;1.60;;;1.30;;
56517;SDS011;42419;48.760;2.322;2023-07-29T05:20:06;1.60;;;1.40;;
56517;SDS011;42419;48.760;2.322;2023-07-29T05:22:31;1.83;;;1.53;;
56517;SDS011;42419;48.760;2.322;2023-07-29T05:24:57;1.90;;;1.43;;
56517;SDS011;42419;48.760;2.322;2023-07-29T05:27:22;1.43;;;1.33;;
56517;SDS011;42419;48.760;2.322;2023-07-29T05:29:47;1.60;;;1.33;;
56517;SDS011;42419;48.760;2.322;2023-07-29T05:32:13;2.13;;;1.30;;
56517;SDS011;42419;48.760;2.322;2023-07-29T05:34:38;1.97;;;1.47;;
56517;SDS011;42419;48.760;2.322;2023-07-29T05:37:03;1.50;;;1.37;;
56517;SDS011;42419;48.760;2.322;2023-07-29T05:39:29;1.30;;;1.20;;
56517;SDS011;42419;48.760;2.322;2023-07-29T05:41:55;2.20;;;1.53;;
56517;SDS011;42419;48.760;2.322;2023-07-29T05:44:20;1.63;;;1.50;;
56517;SDS011;42419;48.760;2.322;2023-07-29T05:46:45;1.40;;;1.30;;
56517;SDS011;42419;48.760;2.322;2023-07-29T05:49:11;1.43;;;1.33;;
56517;SDS011;42419;48.760;2.322;2023-07-29T05:51:36;2.73;;;1.80;;
56517;SDS011;42419;48.760;2.322;2023-07-29T05:54:02;1.40;;;1.30;;
56517;SDS011;42419;48.760;2.322;2023-07-29T05:56:27;1.50;;;1.40;;
56517;SDS011;42419;48.760;2.322;2023-07-29T05:58:52;1.93;;;1.40;;
56517;SDS011;42419;48.760;2.322;2023-07-29T06:01:18;1.97;;;1.20;;
56517;SDS011;42419;48.760;2.322;2023-07-29T06:03:46;2.40;;;1.40;;
56517;SDS011;42419;48.760;2.322;2023-07-29T06:06:11;1.50;;;1.27;;
56517;SDS011;42419;48.760;2.322;2023-07-29T06:08:37;1.43;;;1.33;;
56517;SDS011;42419;48.760;2.322;2023-07-29T06:11:02;1.70;;;1.47;;
56517;SDS011;42419;48.760;2.322;2023-07-29T06:13:27;1.80;;;1.33;;
56517;SDS011;42419;48.760;2.322;2023-07-29T06:15:53;1.40;;;1.30;;
56517;SDS011;42419;48.760;2.322;2023-07-29T06:18:19;1.30;;;1.20;;
56517;SDS011;42419;48.760;2.322;2023-07-29T06:20:44;2.30;;;1.30;;
56517;SDS011;42419;48.760;2.322;2023-07-29T06:23:09;1.20;;;1.10;;
56517;SDS011;42419;48.760;2.322;2023-07-29T06:25:35;1.43;;;1.27;;
56517;SDS011;42419;48.760;2.322;2023-07-29T06:28:00;1.47;;;1.10;;
56517;SDS011;42419;48.760;2.322;2023-07-29T06:30:25;1.20;;;1.10;;
56517;SDS011;42419;48.760;2.322;2023-07-29T06:32:51;1.60;;;1.30;;
56517;SDS011;42419;48.760;2.322;2023-07-29T06:35:16;1.50;;;1.10;;
56517;SDS011;42419;48.760;2.322;2023-07-29T06:37:41;2.07;;;1.13;;
56517;SDS011;42419;48.760;2.322;2023-07-29T06:40:07;1.63;;;1.20;;
56517;SDS011;42419;48.760;2.322;2023-07-29T06:42:33;1.10;;;0.90;;
56517;SDS011;42419;48.760;2.322;2023-07-29T06:44:58;1.10;;;1.00;;
56517;SDS011;42419;48.760;2.322;2023-07-29T06:47:23;1.70;;;1.00;;
56517;SDS011;42419;48.760;2.322;2023-07-29T06:49:48;1.20;;;1.00;;
56517;SDS011;42419;48.760;2.322;2023-07-29T06:52:14;1.00;;;0.90;;
56517;SDS011;42419;48.760;2.322;2023-07-29T06:54:39;2.00;;;1.10;;
56517;SDS011;42419;48.760;2.322;2023-07-29T06:57:04;1.10;;;0.93;;
56517;SDS011;42419;48.760;2.322;2023-07-29T06:59:30;1.70;;;1.17;;
56517;SDS011;42419;48.760;2.322;2023-07-29T07:01:55;1.50;;;1.20;;
56517;SDS011;42419;48.760;2.322;2023-07-29T07:04:21;1.23;;;1.10;;
56517;SDS011;42419;48.760;2.322;2023-07-29T07:06:46;1.20;;;1.10;;
56517;SDS011;42419;48.760;2.322;2023-07-29T07:09:11;1.83;;;1.40;;
56517;SDS011;42419;48.760;2.322;2023-07-29T07:11:36;2.27;;;1.20;;
56517;SDS011;42419;48.760;2.322;2023-07-29T07:14:02;1.90;;;1.30;;
56517;SDS011;42419;48.760;2.322;2023-07-29T07:16:27;1.20;;;1.10;;
56517;SDS011;42419;48.760;2.322;2023-07-29T07:18:55;1.20;;;1.00;;
56517;SDS011;42419;48.760;2.322;2023-07-29T07:21:20;1.10;;;0.90;;
56517;SDS011;42419;48.760;2.322;2023-07-29T07:23:46;1.10;;;1.00;;
56517;SDS011;42419;48.760;2.322;2023-07-29T07:26:11;1.70;;;1.40;;
56517;SDS011;42419;48.760;2.322;2023-07-29T07:28:36;1.30;;;1.20;;
56517;SDS011;42419;48.760;2.322;2023-07-29T07:31:01;1.20;;;0.90;;
56517;SDS011;42419;48.760;2.322;2023-07-29T07:33:27;1.40;;;1.07;;
56517;SDS011;42419;48.760;2.322;2023-07-29T07:35:52;1.50;;;1.10;;
56517;SDS011;42419;48.760;2.322;2023-07-29T07:38:18;1.30;;;1.00;;
56517;SDS011;42419;48.760;2.322;2023-07-29T07:40:51;1.40;;;1.20;;
56517;SDS011;42419;48.760;2.322;2023-07-29T07:43:23;1.10;;;1.00;;
56517;SDS011;42419;48.760;2.322;2023-07-29T07:45:49;1.40;;;1.03;;
56517;SDS011;42419;48.760;2.322;2023-07-29T07:48:14;1.30;;;1.20;;
56517;SDS011;42419;48.760;2.322;2023-07-29T07:50:41;1.30;;;1.10;;
56517;SDS011;42419;48.760;2.322;2023-07-29T07:53:07;1.30;;;1.00;;
56517;SDS011;42419;48.760;2.322;2023-07-29T07:55:32;1.37;;;1.20;;
56517;SDS011;42419;48.760;2.322;2023-07-29T07:57:57;1.63;;;1.50;;
56517;SDS011;42419;48.760;2.322;2023-07-29T08:00:22;1.40;;;1.27;;
56517;SDS011;42419;48.760;2.322;2023-07-29T08:02:48;1.97;;;1.40;;
56517;SDS011;42419;48.760;2.322;2023-07-29T08:05:13;1.30;;;1.20;;
56517;SDS011;42419;48.760;2.322;2023-07-29T08:07:38;1.60;;;1.30;;
56517;SDS011;42419;48.760;2.322;2023-07-29T08:10:04;1.40;;;1.30;;
56517;SDS011;42419;48.760;2.322;2023-07-29T08:12:29;1.57;;;1.33;;
56517;SDS011;42419;48.760;2.322;2023-07-29T08:14:55;2.33;;;1.40;;
56517;SDS011;42419;48.760;2.322;2023-07-29T08:17:20;1.70;;;1.17;;
56517;SDS011;42419;48.760;2.322;2023-07-29T08:19:45;1.37;;;1.27;;
56517;SDS011;42419;48.760;2.322;2023-07-29T08:22:11;2.37;;;1.40;;
56517;SDS011;42419;48.760;2.322;2023-07-29T08:24:36;2.03;;;1.23;;
56517;SDS011;42419;48.760;2.322;2023-07-29T08:27:01;2.10;;;1.23;;
56517;SDS011;42419;48.760;2.322;2023-07-29T08:29:27;1.60;;;1.33;;
56517;SDS011;42419;48.760;2.322;2023-07-29T08:31:52;1.43;;;1.33;;
56517;SDS011;42419;48.760;2.322;2023-07-29T08:34:17;1.90;;;1.23;;
56517;SDS011;42419;48.760;2.322;2023-07-29T08:36:43;1.40;;;1.20;;
56517;SDS011;42419;48.760;2.322;2023-07-29T08:39:08;1.60;;;1.10;;
56517;SDS011;42419;48.760;2.322;2023-07-29T08:41:49;1.50;;;1.17;;
56517;SDS011;42419;48.760;2.322;2023-07-29T08:44:22;3.77;;;1.40;;
56517;SDS011;42419;48.760;2.322;2023-07-29T08:46:48;2.03;;;1.53;;
56517;SDS011;42419;48.760;2.322;2023-07-29T08:49:15;2.20;;;1.60;;
56517;SDS011;42419;48.760;2.322;2023-07-29T08:51:43;2.10;;;1.90;;
56517;SDS011;42419;48.760;2.322;2023-07-29T08:54:11;1.70;;;1.60;;
56517;SDS011;42419;48.760;2.322;2023-07-29T08:56:37;3.20;;;1.40;;
56517;SDS011;42419;48.760;2.322;2023-07-29T08:59:03;1.57;;;1.47;;
56517;SDS011;42419;48.760;2.322;2023-07-29T09:01:30;2.80;;;1.30;;
56517;SDS011;42419;48.760;2.322;2023-07-29T09:03:55;1.80;;;1.50;;
56517;SDS011;42419;48.760;2.322;2023-07-29T09:06:21;1.50;;;1.23;;
56517;SDS011;42419;48.760;2.322;2023-07-29T09:08:48;1.70;;;1.43;;
56517;SDS011;42419;48.760;2.322;2023-07-29T09:11:15;1.10;;;1.00;;
56517;SDS011;42419;48.760;2.322;2023-07-29T09:13:42;1.47;;;1.37;;
56517;SDS011;42419;48.760;2.322;2023-07-29T09:16:07;1.70;;;1.10;;
56517;SDS011;42419;48.760;2.322;2023-07-29T09:18:34;2.10;;;1.70;;
56517;SDS011;42419;48.760;2.322;2023-07-29T09:20:59;1.60;;;1.50;;
56517;SDS011;42419;48.760;2.322;2023-07-29T09:23:26;2.03;;;1.40;;
56517;SDS011;42419;48.760;2.322;2023-07-29T09:25:53;1.60;;;1.50;;
56517;SDS011;42419;48.760;2.322;2023-07-29T09:28:25;2.27;;;1.60;;
56517;SDS011;42419;48.760;2.322;2023-07-29T09:30:52;1.50;;;1.40;;
56517;SDS011;42419;48.760;2.322;2023-07-29T09:33:18;1.50;;;1.40;;
56517;SDS011;42419;48.760;2.322;2023-07-29T09:35:43;1.60;;;1.50;;
56517;SDS011;42419;48.760;2.322;2023-07-29T09:38:13;1.60;;;1.50;;
56517;SDS011;42419;48.760;2.322;2023-07-29T09:40:40;1.40;;;1.30;;
56517;SDS011;42419;48.760;2.322;2023-07-29T09:43:09;1.70;;;1.57;;
56517;SDS011;42419;48.760;2.322;2023-07-29T09:45:35;1.50;;;1.40;;
56517;SDS011;42419;48.760;2.322;2023-07-29T09:48:02;1.70;;;1.50;;
56517;SDS011;42419;48.760;2.322;2023-07-29T09:50:30;1.77;;;1.60;;
56517;SDS011;42419;48.760;2.322;2023-07-29T09:52:56;1.87;;;1.63;;
56517;SDS011;42419;48.760;2.322;2023-07-29T09:55:25;1.70;;;1.60;;
56517;SDS011;42419;48.760;2.322;2023-07-29T09:57:57;3.10;;;1.90;;
56517;SDS011;42419;48.760;2.322;2023-07-29T10:00:30;1.50;;;1.40;;
56517;SDS011;42419;48.760;2.322;2023-07-29T10:02:56;1.97;;;1.87;;
56517;SDS011;42419;48.760;2.322;2023-07-29T10:05:26;1.60;;;1.50;;
56517;SDS011;42419;48.760;2.322;2023-07-29T10:07:53;1.60;;;1.50;;
56517;SDS011;42419;48.760;2.322;2023-07-29T10:10:22;1.60;;;1.50;;
56517;SDS011;42419;48.760;2.322;2023-07-29T10:12:47;2.00;;;1.90;;
56517;SDS011;42419;48.760;2.322;2023-07-29T10:15:14;1.80;;;1.70;;
56517;SDS011;42419;48.760;2.322;2023-07-29T10:17:40;1.83;;;1.70;;
56517;SDS011;42419;48.760;2.322;2023-07-29T10:20:08;2.20;;;1.90;;
56517;SDS011;42419;48.760;2.322;2023-07-29T10:22:39;2.03;;;1.73;;
56517;SDS011;42419;48.760;2.322;2023-07-29T10:25:28;2.87;;;1.80;;
56517;SDS011;42419;48.760;2.322;2023-07-29T10:27:56;2.43;;;2.23;;
56517;SDS011;42419;48.760;2.322;2023-07-29T10:30:26;2.00;;;1.90;;
56517;SDS011;42419;48.760;2.322;2023-07-29T10:32:53;2.30;;;2.10;;
56517;SDS011;42419;48.760;2.322;2023-07-29T10:35:22;3.20;;;2.23;;
56517;SDS011;42419;48.760;2.322;2023-07-29T10:37:48;1.80;;;1.70;;
56517;SDS011;42419;48.760;2.322;2023-07-29T10:40:16;2.60;;;1.83;;
56517;SDS011;42419;48.760;2.322;2023-07-29T10:42:59;2.27;;;2.07;;
56517;SDS011;42419;48.760;2.322;2023-07-29T10:45:40;2.93;;;2.07;;
56517;SDS011;42419;48.760;2.322;2023-07-29T10:48:08;2.27;;;2.10;;
56517;SDS011;42419;48.760;2.322;2023-07-29T10:50:37;3.33;;;1.90;;
56517;SDS011;42419;48.760;2.322;2023-07-29T10:53:03;1.83;;;1.73;;
56517;SDS011;42419;48.760;2.322;2023-07-29T10:55:30;2.13;;;1.57;;
56517;SDS011;42419;48.760;2.322;2023-07-29T10:58:31;2.07;;;1.87;;
56517;SDS011;42419;48.760;2.322;2023-07-29T11:00:49;3.20;;;1.60;;
56517;SDS011;42419;48.760;2.322;2023-07-29T11:03:14;1.70;;;1.60;;
56517;SDS011;42419;48.760;2.322;2023-07-29T11:10:43;1.80;;;1.70;;
56517;SDS011;42419;48.760;2.322;2023-07-29T11:13:09;1.90;;;1.80;;
56517;SDS011;42419;48.760;2.322;2023-07-29T11:15:36;2.80;;;1.87;;
56517;SDS011;42419;48.760;2.322;2023-07-29T11:18:04;1.77;;;1.67;;
56517;SDS011;42419;48.760;2.322;2023-07-29T11:20:32;1.80;;;1.70;;
56517;SDS011;42419;48.760;2.322;2023-07-29T11:22:59;1.97;;;1.77;;
56517;SDS011;42419;48.760;2.322;2023-07-29T11:25:26;1.90;;;1.50;;
56517;SDS011;42419;48.760;2.322;2023-07-29T11:27:54;1.77;;;1.67;;
56517;SDS011;42419;48.760;2.322;2023-07-29T11:30:23;2.60;;;1.70;;
56517;SDS011;42419;48.760;2.322;2023-07-29T11:32:52;6.10;;;1.50;;
56517;SDS011;42419;48.760;2.322;2023-07-29T11:35:18;2.27;;;2.00;;
56517;SDS011;42419;48.760;2.322;2023-07-29T11:37:45;1.70;;;1.60;;
56517;SDS011;42419;48.760;2.322;2023-07-29T11:40:15;2.47;;;1.50;;
56517;SDS011;42419;48.760;2.322;2023-07-29T11:42:42;1.67;;;1.50;;
56517;SDS011;42419;48.760;2.322;2023-07-29T11:45:08;1.80;;;1.60;;
56517;SDS011;42419;48.760;2.322;2023-07-29T11:47:35;2.03;;;1.83;;
56517;SDS011;42419;48.760;2.322;2023-07-29T11:50:04;2.30;;;1.97;;
56517;SDS011;42419;48.760;2.322;2023-07-29T11:52:31;2.10;;;1.60;;
56517;SDS011;42419;48.760;2.322;2023-07-29T11:54:58;2.17;;;1.30;;
56517;SDS011;42419;48.760;2.322;2023-07-29T11:57:25;2.00;;;1.80;;
56517;SDS011;42419;48.760;2.322;2023-07-29T11:59:51;1.87;;;1.50;;
56517;SDS011;42419;48.760;2.322;2023-07-29T12:02:17;4.03;;;1.53;;
56517;SDS011;42419;48.760;2.322;2023-07-29T12:04:44;1.77;;;1.63;;
56517;SDS011;42419;48.760;2.322;2023-07-29T12:07:12;1.93;;;1.70;;
56517;SDS011;42419;48.760;2.322;2023-07-29T12:09:39;2.40;;;1.90;;
56517;SDS011;42419;48.760;2.322;2023-07-29T12:12:06;2.47;;;1.90;;
56517;SDS011;42419;48.760;2.322;2023-07-29T12:14:32;2.20;;;1.67;;
56517;SDS011;42419;48.760;2.322;2023-07-29T12:17:02;3.17;;;1.90;;
56517;SDS011;42419;48.760;2.322;2023-07-29T12:19:35;2.10;;;1.90;;
56517;SDS011;42419;48.760;2.322;2023-07-29T12:22:02;3.20;;;1.80;;
56517;SDS011;42419;48.760;2.322;2023-07-29T12:24:30;2.77;;;1.87;;
56517;SDS011;42419;48.760;2.322;2023-07-29T12:26:56;2.10;;;1.87;;
56517;SDS011;42419;48.760;2.322;2023-07-29T12:29:21;2.20;;;1.70;;
56517;SDS011;42419;48.760;2.322;2023-07-29T12:31:47;2.80;;;2.20;;
56517;SDS011;42419;48.760;2.322;2023-07-29T12:34:19;2.17;;;1.97;;
56517;SDS011;42419;48.760;2.322;2023-07-29T12:36:48;2.17;;;1.97;;
56517;SDS011;42419;48.760;2.322;2023-07-29T12:39:21;1.87;;;1.70;;
56517;SDS011;42419;48.760;2.322;2023-07-29T12:41:49;2.07;;;1.87;;
56517;SDS011;42419;48.760;2.322;2023-07-29T12:44:16;2.30;;;1.90;;
56517;SDS011;42419;48.760;2.322;2023-07-29T12:46:41;1.87;;;1.67;;
56517;SDS011;42419;48.760;2.322;2023-07-29T12:49:07;2.30;;;1.90;;
56517;SDS011;42419;48.760;2.322;2023-07-29T12:51:32;1.90;;;1.80;;
56517;SDS011;42419;48.760;2.322;2023-07-29T12:53:58;2.00;;;1.80;;
56517;SDS011;42419;48.760;2.322;2023-07-29T12:56:23;3.03;;;2.03;;
56517;SDS011;42419;48.760;2.322;2023-07-29T12:58:49;2.63;;;2.30;;
56517;SDS011;42419;48.760;2.322;2023-07-29T13:01:14;2.70;;;2.03;;
56517;SDS011;42419;48.760;2.322;2023-07-29T13:03:43;2.23;;;2.03;;
56517;SDS011;42419;48.760;2.322;2023-07-29T13:06:09;2.00;;;1.80;;
56517;SDS011;42419;48.760;2.322;2023-07-29T13:08:34;2.03;;;1.87;;
56517;SDS011;42419;48.760;2.322;2023-07-29T13:10:59;2.23;;;1.83;;
56517;SDS011;42419;48.760;2.322;2023-07-29T13:13:25;2.53;;;1.60;;
56517;SDS011;42419;48.760;2.322;2023-07-29T13:15:50;2.13;;;1.93;;
56517;SDS011;42419;48.760;2.322;2023-07-29T13:18:15;2.37;;;1.67;;
56517;SDS011;42419;48.760;2.322;2023-07-29T13:20:41;3.43;;;1.90;;
56517;SDS011;42419;48.760;2.322;2023-07-29T13:23:06;1.87;;;1.77;;
56517;SDS011;42419;48.760;2.322;2023-07-29T13:25:31;2.53;;;1.60;;
56517;SDS011;42419;48.760;2.322;2023-07-29T13:27:57;2.40;;;1.77;;
56517;SDS011;42419;48.760;2.322;2023-07-29T13:30:22;2.43;;;1.80;;
56517;SDS011;42419;48.760;2.322;2023-07-29T13:32:47;1.77;;;1.67;;
56517;SDS011;42419;48.760;2.322;2023-07-29T13:35:13;1.90;;;1.63;;
56517;SDS011;42419;48.760;2.322;2023-07-29T13:37:38;1.97;;;1.77;;
56517;SDS011;42419;48.760;2.322;2023-07-29T13:40:04;2.03;;;1.73;;
56517;SDS011;42419;48.760;2.322;2023-07-29T13:42:29;1.87;;;1.67;;
56517;SDS011;42419;48.760;2.322;2023-07-29T13:44:55;1.67;;;1.57;;
56517;SDS011;42419;48.760;2.322;2023-07-29T13:47:20;2.03;;;1.43;;
56517;SDS011;42419;48.760;2.322;2023-07-29T13:49:45;3.00;;;1.50;;
56517;SDS011;42419;48.760;2.322;2023-07-29T13:52:11;2.57;;;1.43;;
56517;SDS011;42419;48.760;2.322;2023-07-29T13:54:37;2.17;;;1.80;;
56517;SDS011;42419;48.760;2.322;2023-07-29T13:57:03;1.90;;;1.80;;
56517;SDS011;42419;48.760;2.322;2023-07-29T13:59:29;2.40;;;1.70;;
56517;SDS011;42419;48.760;2.322;2023-07-29T14:01:54;1.60;;;1.50;;
56517;SDS011;42419;48.760;2.322;2023-07-29T14:04:20;2.30;;;1.50;;
56517;SDS011;42419;48.760;2.322;2023-07-29T14:06:45;2.60;;;1.73;;
56517;SDS011;42419;48.760;2.322;2023-07-29T14:09:10;1.50;;;1.40;;
56517;SDS011;42419;48.760;2.322;2023-07-29T14:11:35;1.80;;;1.60;;
56517;SDS011;42419;48.760;2.322;2023-07-29T14:14:01;3.50;;;2.10;;
56517;SDS011;42419;48.760;2.322;2023-07-29T14:16:26;1.97;;;1.60;;
56517;SDS011;42419;48.760;2.322;2023-07-29T14:18:51;1.60;;;1.50;;
56517;SDS011;42419;48.760;2.322;2023-07-29T14:21:17;1.60;;;1.50;;
56517;SDS011;42419;48.760;2.322;2023-07-29T14:23:42;1.70;;;1.60;;
56517;SDS011;42419;48.760;2.322;2023-07-29T14:26:07;2.23;;;1.70;;
56517;SDS011;42419;48.760;2.322;2023-07-29T14:28:34;3.10;;;1.60;;
56517;SDS011;42419;48.760;2.322;2023-07-29T14:31:00;2.57;;;2.10;;
56517;SDS011;42419;48.760;2.322;2023-07-29T14:33:26;1.80;;;1.70;;
56517;SDS011;42419;48.760;2.322;2023-07-29T14:35:51;1.60;;;1.43;;
56517;SDS011;42419;48.760;2.322;2023-07-29T14:38:16;3.40;;;2.27;;
56517;SDS011;42419;48.760;2.322;2023-07-29T14:40:42;2.93;;;1.80;;
56517;SDS011;42419;48.760;2.322;2023-07-29T14:43:07;2.30;;;1.43;;
56517;SDS011;42419;48.760;2.322;2023-07-29T14:45:32;1.60;;;1.50;;
56517;SDS011;42419;48.760;2.322;2023-07-29T14:47:57;1.63;;;1.50;;
56517;SDS011;42419;48.760;2.322;2023-07-29T14:50:23;1.93;;;1.83;;
56517;SDS011;42419;48.760;2.322;2023-07-29T14:52:48;1.60;;;1.50;;
56517;SDS011;42419;48.760;2.322;2023-07-29T14:55:13;1.70;;;1.60;;